[source: ADDS]
METAR
EDVE 060720Z 12006KT CAVOK 12/00 Q1021

TAF EDVE 060547Z 0606/0615 12006KT CAVOK BECMG 0608/0611 18008KT EDDV 060720Z 14008KT 090V170 CAVOK 12/01 Q1020 NOSIG

TAF EDDV 060500Z 0606/0706 12007KT CAVOK BECMG 0608/0610 18009KT BECMG 0617/0620 22004KT BECMG 0701/0704 30005KT TEMPO 0704/0706 3500 -RADZ BKN007 ETHS 060720Z VRB03KT 9999 12/M01 Q1021 BLU+BLU+

TAF ETHS 060720Z 0608/0617 15010KT 9999 NSW SKC ETHC 060720Z 12006KT 9999 10/M01 Q1021 BLU+BLU+

TAF ETHC 060725Z 0608/0617 16010KT 9999 NSW SKC EDVK 060720Z 15010KT CAVOK 11/M01 Q1021

TAF EDVK 060718Z 0608/0615 16010KT CAVOK
TAF
TAF EDVE 060547Z 0606/0615 12006KT CAVOK BECMG 0608/0611 18008KT

TAF EDDV 060500Z 0606/0706 12007KT CAVOK BECMG 0608/0610 18009KT BECMG 0617/0620 22004KT BECMG 0701/0704 30005KT TEMPO 0704/0706 3500 -RADZ BKN007

TAF ETHS 060720Z 0608/0617 15010KT 9999 NSW SKC

TAF ETHC 060725Z 0608/0617 16010KT 9999 NSW SKC

TAF EDVK 060718Z 0608/0615 16010KT CAVOK

SR / SS: 04:39 / 18:00 UTC (EDVE 2020-04-06)
Bei der FFG ist der Betrieb zunächst bis zum 18.04.2020 (einschließlich) eingestellt. +++ Gero steht ebenfalls als Fluglehrer zur Verfügung! Vielen Dank an Gero und viel Erfolg beim Ausbilden. +++ Ilya hat die Theorieprüfung bestanden! Herzlichen Glückwunsch und weiterhin viel Erfolg für die restliche Ausbildung! +++ Hallo Felix, herzlich Willkommen bei der FFG und viel Erfolg für deine Pilotenausbildung! +++ Jens verstärkt als neuer Fluglehrer ab sofort unser FFG-Fluglehrer-Team. Glückwunsch und viel Erfolg beim Ausbilden! +++ Wir beglückwünschen Sebastian zur bestandenen PPL-Theorie-Prüfung! Weiterhin viel Erfolg bei der Ausbildung! +++ Stefan hat die praktische Prüfung bestanden! Herzlichen Glückwunsch und Always Happy Landings! +++ Ein weiteres Mitglied hat die Prüfung zum Fluglehrer gemeistert. Glückwunsch Nico und viel Erfolg beim Ausbilden! +++ Florian Hansmann ist ab sofort als Fluglehrer für die FFG tätig! Danke für das Engagement und viel Spaß mit deinen zukünftigen Schülern! +++ Willkommen im Verein Michael und viel Erfolg für deine Ausbildung! +++ Herzlich Willkommen bei der FFG Jens!

wenig -> mittel -> viel

Professionelle Piloten arbeiten mit Checkliste
Ausdrucken und abarbeiten! Vorbereitete Links helfen bei der Beschaffung der notwendigen Informationen.

Weiterlesen ...

Hier gibt es die AIP mit allen erforderlichen Karten die im Abo der FFG liegen zum Download für unsere Mitglieder.

          aerodata150     Radio38